Time;durP1;ratioP1;P1;durP2;ratioP2;P2;SDS_P1;SDS_P2;PMS_P1;PMS_P2;Temp;Humidity;BMP_temperature;BMP_pressure;BME280_temperature;BME280_humidity;BME280_pressure;Samples;Min_cycle;Max_cycle;Signal;HPM_P1;HPM_P2
2022/09/13 00:01:57;;;;;;;3.90;3.60;;;21.00;60.30;;;23.61;45.78;100843.91;5051780;28;20229;-55
2022/09/13 00:04:25;;;;;;;4.77;4.07;;;21.00;60.30;;;23.64;45.97;100846.09;5051905;28;20216;-57
2022/09/13 00:06:52;;;;;;;4.37;3.90;;;21.00;60.50;;;23.64;45.89;100843.41;5051992;28;20194;-56
2022/09/13 00:09:19;;;;;;;5.13;4.37;;;21.00;60.50;;;23.63;46.07;100839.06;5052212;28;20190;-55
2022/09/13 00:11:48;;;;;;;5.67;5.07;;;21.00;60.60;;;23.59;46.23;100835.28;5052044;28;20340;-57
2022/09/13 00:14:15;;;;;;;4.40;4.10;;;21.00;60.70;;;23.53;46.21;100836.34;5052390;28;20194;-57
2022/09/13 00:16:43;;;;;;;4.53;4.13;;;21.00;60.80;;;23.54;46.25;100833.38;5052611;28;20267;-56
2022/09/13 00:19:10;;;;;;;5.40;4.30;;;21.00;60.80;;;23.52;46.49;100830.13;5052240;28;20196;-55
2022/09/13 00:21:37;;;;;;;5.17;4.27;;;21.00;60.90;;;23.52;46.31;100835.50;5051477;28;20190;-54
2022/09/13 00:24:05;;;;;;;5.67;4.40;;;21.00;60.90;;;23.52;46.43;100822.06;5051636;28;20182;-56
2022/09/13 00:26:32;;;;;;;4.50;4.10;;;21.00;61.00;;;23.52;46.50;100823.94;5051668;28;20193;-53
2022/09/13 00:29:00;;;;;;;4.63;4.20;;;21.00;61.20;;;23.51;46.49;100816.94;5051600;28;20201;-58
2022/09/13 00:31:28;;;;;;;4.80;4.30;;;21.00;61.20;;;23.48;46.88;100814.78;5051310;28;20198;-53
2022/09/13 00:33:58;;;;;;;4.73;4.33;;;21.00;61.30;;;23.44;46.76;100806.41;5051615;28;20190;-55
2022/09/13 00:36:26;;;;;;;5.70;5.03;;;21.00;61.50;;;23.43;46.76;100814.75;5051704;28;20224;-56
2022/09/13 00:38:53;;;;;;;4.93;4.30;;;20.90;61.50;;;23.40;47.18;100812.56;5051596;28;20212;-57
2022/09/13 00:41:21;;;;;;;6.27;4.63;;;20.90;61.60;;;23.38;47.21;100812.03;5051493;28;20190;-53
2022/09/13 00:43:52;;;;;;;4.97;4.47;;;20.90;62.00;;;23.33;47.35;100828.88;5051384;28;20214;-56
2022/09/13 00:46:42;;;;;;;4.00;3.70;;;20.90;62.40;;;23.32;47.51;100840.69;5051512;28;20216;-55
2022/09/13 00:49:15;;;;;;;5.23;4.73;;;20.90;63.00;;;23.39;47.70;100841.31;5051067;28;20198;-53
2022/09/13 00:51:50;;;;;;;6.63;5.90;;;20.90;63.40;;;23.40;48.47;100836.75;5050719;28;20201;-56
2022/09/13 00:54:21;;;;;;;5.20;4.70;;;20.80;64.60;;;23.40;48.37;100831.38;5051244;28;20189;-55
2022/09/13 00:56:54;;;;;;;6.90;5.17;;;20.80;64.60;;;23.39;49.16;100832.47;5051137;28;20597;-55
2022/09/13 00:59:27;;;;;;;6.83;6.00;;;20.80;65.60;;;23.37;49.76;100815.75;5051184;28;20193;-56
2022/09/13 01:01:57;;;;;;;5.47;4.97;;;20.80;66.40;;;23.38;49.57;100812.84;5050675;28;20233;-56
2022/09/13 01:04:30;;;;;;;6.43;5.60;;;20.80;66.20;;;23.42;49.74;100797.00;5051208;28;20542;-55
2022/09/13 01:07:03;;;;;;;6.50;5.90;;;20.80;66.70;;;23.41;50.09;100806.13;5051035;28;20259;-53
2022/09/13 01:09:35;;;;;;;5.83;5.33;;;20.80;66.90;;;23.43;49.69;100842.44;5050887;28;20190;-54
2022/09/13 01:12:17;;;;;;;6.97;5.97;;;20.80;67.20;;;23.41;50.12;100831.13;5050537;28;20236;-55
2022/09/13 01:14:46;;;;;;;7.27;5.80;;;20.70;67.60;;;23.44;50.06;100808.28;5050850;28;20198;-56
2022/09/13 01:17:15;;;;;;;7.00;6.40;;;20.70;68.00;;;23.44;50.52;100802.91;5050729;28;20217;-52
2022/09/13 01:19:42;;;;;;;7.63;5.80;;;20.70;68.40;;;23.45;50.57;100804.56;5050653;28;20634;-53
2022/09/13 01:22:50;;;;;;;6.73;6.13;;;20.70;68.60;;;23.36;50.67;100796.16;5051631;28;20650;-55
2022/09/13 01:26:07;;;;;;;6.30;5.73;;;20.60;69.10;;;23.31;50.68;100800.66;5054793;28;20577;-55
2022/09/13 01:29:14;;;;;;;6.60;6.00;;;20.60;69.60;;;23.29;51.29;100794.72;5023858;28;20210;-55
2022/09/13 01:31:53;;;;;;;7.57;6.20;;;20.60;70.00;;;23.33;51.27;100809.25;5054203;28;20182;-56
2022/09/13 01:34:40;;;;;;;7.87;7.17;;;20.50;70.00;;;23.30;51.28;100782.91;5054599;28;20190;-55
2022/09/13 01:37:37;;;;;;;8.03;7.00;;;20.50;70.20;;;23.23;52.95;100788.50;5054255;28;20217;-56
2022/09/13 01:40:20;;;;;;;7.43;6.73;;;20.50;71.40;;;23.17;52.98;100783.34;5054702;28;20193;-52
2022/09/13 01:43:13;;;;;;;16.90;6.70;;;20.50;71.80;;;23.00;53.11;100775.41;5054365;28;20303;-56
2022/09/13 01:45:54;;;;;;;7.77;6.97;;;20.50;71.70;;;22.90;53.95;100769.94;5054128;28;20243;-55
2022/09/13 01:48:41;;;;;;;7.40;6.40;;;20.40;72.30;;;22.85;53.60;100770.72;5054256;28;20263;-55
2022/09/13 01:51:20;;;;;;;6.23;5.70;;;20.40;71.90;;;22.91;52.99;100768.88;5053823;28;20228;-55
2022/09/13 01:54:05;;;;;;;7.27;5.67;;;20.30;72.00;;;22.94;53.48;100759.50;5053896;28;20624;-56
2022/09/13 01:56:41;;;;;;;7.30;6.70;;;20.30;72.40;;;22.92;53.56;100742.84;5053855;28;20205;-56
2022/09/13 01:59:19;;;;;;;8.43;7.63;;;20.30;72.30;;;22.82;54.01;100755.09;5053957;28;20208;-57
2022/09/13 02:01:56;;;;;;;8.87;8.00;;;20.20;72.90;;;22.72;54.80;100749.66;5053449;28;20225;-57
2022/09/13 02:04:34;;;;;;;8.73;7.93;;;20.20;73.40;;;22.61;54.73;100747.91;5053846;28;20194;-54
2022/09/13 02:07:13;;;;;;;9.80;8.30;;;20.10;73.80;;;22.54;55.06;100749.97;5053870;28;20204;-55
2022/09/13 02:09:47;;;;;;;9.67;8.77;;;20.10;73.70;;;22.48;55.24;100748.31;5053831;28;20185;-55
2022/09/13 02:12:19;;;;;;;9.03;8.23;;;20.00;74.40;;;22.39;55.84;100744.47;5053414;28;20686;-53
2022/09/13 02:14:56;;;;;;;9.20;8.30;;;20.00;74.90;;;22.39;56.16;100744.47;5053680;28;20182;-53
2022/09/13 02:17:31;;;;;;;9.70;8.70;;;19.90;74.80;;;22.40;56.34;100740.69;5053572;28;20258;-55
2022/09/13 02:20:08;;;;;;;12.33;9.20;;;19.90;75.60;;;22.33;55.97;100728.53;5053626;28;20178;-55
2022/09/13 02:22:45;;;;;;;9.80;8.90;;;19.90;75.50;;;22.31;56.01;100734.16;5053065;28;20825;-56
2022/09/13 02:25:16;;;;;;;9.57;8.67;;;19.80;75.80;;;22.29;56.88;100738.97;5053349;28;20193;-56
2022/09/13 02:27:50;;;;;;;10.67;9.57;;;19.80;76.20;;;22.24;56.56;100731.69;5053486;28;20185;-54
2022/09/13 02:30:18;;;;;;;11.80;8.90;;;19.70;76.30;;;22.21;56.86;100726.81;5059474;28;20186;-56
2022/09/13 02:32:53;;;;;;;11.10;9.43;;;19.70;76.40;;;22.20;56.73;100724.38;5052925;28;20548;-55
2022/09/13 02:35:30;;;;;;;11.73;9.83;;;19.70;76.60;;;22.18;56.88;100716.56;5051960;28;20265;-56
2022/09/13 02:38:03;;;;;;;10.37;9.37;;;19.70;76.80;;;22.22;56.99;100727.63;5053265;28;20309;-55
2022/09/13 02:40:41;;;;;;;10.37;9.37;;;19.70;76.90;;;22.20;56.87;100729.75;5052871;28;20179;-55
2022/09/13 02:43:15;;;;;;;10.97;9.97;;;19.60;77.60;;;22.22;56.69;100722.25;5053140;28;20682;-55
2022/09/13 02:45:51;;;;;;;11.97;10.73;;;19.60;76.80;;;22.20;57.01;100727.06;5053413;28;20670;-56
2022/09/13 02:48:32;;;;;;;10.97;9.67;;;19.60;77.30;;;22.20;56.83;100729.75;5053342;28;20201;-55
2022/09/13 02:51:15;;;;;;;9.33;8.43;;;19.60;76.90;;;22.27;56.82;100730.38;5052666;28;20200;-57
2022/09/13 02:53:52;;;;;;;12.57;8.90;;;19.60;77.00;;;22.40;56.66;100731.81;5052795;28;20260;-57
2022/09/13 02:56:28;;;;;;;9.67;8.07;;;19.70;77.10;;;22.50;56.42;100730.06;5052655;28;20249;-56
2022/09/13 02:59:04;;;;;;;10.23;8.60;;;19.70;77.20;;;22.61;55.96;100715.72;5052621;28;20558;-54
2022/09/13 03:01:35;;;;;;;9.83;8.83;;;19.70;76.90;;;22.66;56.09;100713.09;5051935;28;20193;-57
2022/09/13 03:04:03;;;;;;;11.87;9.87;;;19.80;76.70;;;22.65;55.98;100711.47;5052787;28;20208;-54
2022/09/13 03:06:31;;;;;;;10.53;9.53;;;19.90;76.70;;;22.61;55.91;100720.25;5052535;28;20244;-55
2022/09/13 03:09:03;;;;;;;12.00;10.80;;;19.90;76.40;;;22.54;55.88;100714.25;5052645;28;21057;-57
2022/09/13 03:11:50;;;;;;;11.57;10.50;;;19.80;76.40;;;22.46;56.10;100723.59;5052020;28;20224;-58
2022/09/13 03:14:36;;;;;;;11.40;10.33;;;19.80;76.50;;;22.42;56.34;100727.00;5052366;28;20689;-53
2022/09/13 03:17:19;;;;;;;11.33;10.20;;;19.90;76.90;;;22.38;56.81;100721.34;5052474;28;20655;-53
2022/09/13 03:20:08;;;;;;;12.57;11.30;;;19.80;76.90;;;22.33;57.13;100723.97;5052358;28;20209;-54
2022/09/13 03:23:33;;;;;;;10.87;9.77;;;19.80;77.20;;;22.25;57.10;100716.38;5051936;28;20229;-54
2022/09/13 03:26:34;;;;;;;12.80;11.50;;;19.80;77.50;;;22.24;57.58;100715.59;5052150;28;20559;-54
2022/09/13 03:29:23;;;;;;;12.10;10.83;;;19.70;77.50;;;22.23;57.36;100713.13;5052189;28;20178;-54
2022/09/13 03:32:09;;;;;;;13.17;11.60;;;19.70;77.70;;;22.24;57.40;100704.03;5051859;28;20311;-54
2022/09/13 03:34:47;;;;;;;12.73;11.37;;;19.70;78.60;;;22.24;57.49;100710.22;5052361;28;20212;-54
2022/09/13 03:37:27;;;;;;;13.00;11.70;;;19.70;78.00;;;22.23;57.74;100708.59;5052262;28;20206;-53
2022/09/13 03:40:02;;;;;;;13.40;12.00;;;19.70;78.40;;;22.23;57.85;100710.47;5052218;28;20232;-54
2022/09/13 03:42:40;;;;;;;20.13;13.77;;;19.60;78.50;;;22.21;57.68;100715.25;5051668;28;20298;-55
2022/09/13 03:45:12;;;;;;;14.77;13.30;;;19.60;78.50;;;22.20;57.97;100714.44;5052133;28;20177;-56
2022/09/13 03:47:44;;;;;;;12.60;11.40;;;19.60;79.00;;;22.20;57.82;100713.66;5051880;28;20182;-54
2022/09/13 03:50:18;;;;;;;12.67;11.47;;;19.60;79.60;;;22.23;57.71;100723.88;5052177;28;20631;-55
2022/09/13 03:52:51;;;;;;;12.30;11.03;;;19.60;78.90;;;22.30;57.60;100716.44;5051598;28;20259;-55
2022/09/13 03:55:21;;;;;;;16.47;14.40;;;19.60;78.80;;;22.30;58.16;100708.38;5051970;28;20527;-54
2022/09/13 03:57:48;;;;;;;15.30;13.83;;;19.60;79.20;;;22.27;57.88;100708.91;5051607;28;20263;-54
2022/09/13 04:00:17;;;;;;;16.03;13.63;;;19.60;78.90;;;22.27;58.21;100716.97;5051338;28;20251;-53
2022/09/13 04:02:44;;;;;;;12.17;10.90;;;19.60;79.10;;;22.34;57.73;100720.25;5051050;28;20272;-56
2022/09/13 04:05:11;;;;;;;12.47;11.27;;;19.60;79.20;;;22.43;57.55;100729.47;5051344;28;20230;-54
2022/09/13 04:07:39;;;;;;;11.77;10.57;;;19.70;79.10;;;22.50;57.50;100718.53;5051285;28;20193;-55
2022/09/13 04:10:09;;;;;;;15.33;12.17;;;19.70;79.00;;;22.56;57.28;100723.69;5051141;28;20311;-56
2022/09/13 04:12:41;;;;;;;13.40;12.07;;;19.70;78.70;;;22.63;57.00;100724.31;5050974;28;20237;-54
2022/09/13 04:15:09;;;;;;;13.53;12.23;;;19.80;78.70;;;22.71;56.66;100726.56;5051297;28;20587;-56
2022/09/13 04:17:36;;;;;;;15.30;13.70;;;19.80;78.60;;;22.76;56.52;100723.09;5051315;28;20542;-55
2022/09/13 04:20:04;;;;;;;14.13;12.83;;;19.80;78.40;;;22.78;56.40;100721.78;5051463;28;20663;-54
2022/09/13 04:22:32;;;;;;;14.43;13.03;;;19.80;78.30;;;22.81;56.59;100726.66;5050706;28;20726;-56
2022/09/13 04:24:59;;;;;;;15.13;13.63;;;19.90;78.50;;;22.84;56.28;100714.59;5050858;28;20637;-55
2022/09/13 04:27:28;;;;;;;16.43;14.80;;;19.90;78.00;;;22.80;56.14;100719.66;5050959;28;20624;-57
2022/09/13 04:29:57;;;;;;;16.80;15.10;;;19.90;77.70;;;22.78;56.27;100727.16;5050710;28;20190;-57
2022/09/13 04:32:24;;;;;;;14.53;13.13;;;20.00;77.80;;;22.79;56.25;100718.06;5050392;28;20209;-55
2022/09/13 04:34:52;;;;;;;15.53;14.03;;;19.90;77.70;;;22.81;56.24;100715.91;5050455;28;20206;-56
2022/09/13 04:37:19;;;;;;;16.03;14.40;;;19.90;77.70;;;22.81;56.10;100721.28;5050529;28;20245;-56
2022/09/13 04:39:47;;;;;;;15.27;13.73;;;19.90;77.70;;;22.82;56.17;100722.09;5050870;28;20203;-55
2022/09/13 04:42:14;;;;;;;15.77;14.27;;;19.90;77.80;;;22.83;56.15;100723.69;5051112;28;20209;-54
2022/09/13 04:44:43;;;;;;;18.30;14.77;;;20.00;78.00;;;22.86;56.08;100712.47;5050380;28;20194;-53
2022/09/13 04:47:12;;;;;;;15.33;13.83;;;20.00;78.20;;;22.85;56.33;100727.75;5050773;28;20247;-56
2022/09/13 04:49:39;;;;;;;15.60;14.00;;;19.90;78.30;;;22.83;56.44;100723.69;5050735;28;20192;-55
2022/09/13 04:52:07;;;;;;;14.80;13.27;;;19.90;78.40;;;22.82;56.67;100728.25;5050080;28;20624;-57
2022/09/13 04:54:34;;;;;;;15.57;14.00;;;19.90;78.60;;;22.82;56.59;100728.25;5050503;28;20194;-54
2022/09/13 04:57:01;;;;;;;17.40;15.70;;;19.90;78.80;;;22.80;56.43;100729.56;5051733;28;20831;-54
2022/09/13 04:59:28;;;;;;;17.77;15.90;;;19.90;79.10;;;22.77;56.68;100727.41;5054574;28;20194;-54
2022/09/13 05:01:58;;;;;;;16.93;15.30;;;19.90;79.30;;;22.72;57.03;100740.78;5052336;28;20274;-57
2022/09/13 05:04:27;;;;;;;16.53;14.90;;;19.90;79.50;;;22.66;57.30;100734.56;5054589;28;20243;-56
2022/09/13 05:06:54;;;;;;;16.37;14.73;;;19.80;80.50;;;22.62;57.63;100733.44;5054090;28;20189;-54
2022/09/13 05:09:22;;;;;;;16.10;14.47;;;19.80;80.10;;;22.60;57.46;100734.72;5054185;28;20202;-57
2022/09/13 05:11:50;;;;;;;16.73;14.97;;;19.80;80.20;;;22.58;57.74;100737.66;5054197;28;20213;-56
2022/09/13 05:14:17;;;;;;;15.67;14.07;;;19.80;80.40;;;22.56;57.92;100734.41;5054379;28;20247;-54
2022/09/13 05:16:44;;;;;;;15.50;13.90;;;19.80;80.60;;;22.59;58.01;100733.09;5054194;28;20217;-56
2022/09/13 05:19:12;;;;;;;17.83;14.83;;;19.70;80.90;;;22.63;58.13;100729.69;5054418;28;20251;-57
2022/09/13 05:21:40;;;;;;;16.33;14.70;;;19.80;81.40;;;22.70;58.33;100734.88;5054093;28;20364;-54
2022/09/13 05:24:08;;;;;;;16.00;14.50;;;19.80;81.80;;;22.77;58.36;100738.94;5053508;28;20701;-55
2022/09/13 05:26:35;;;;;;;15.53;14.03;;;19.80;81.90;;;22.81;58.35;100745.44;5053600;28;20193;-56
2022/09/13 05:29:03;;;;;;;15.87;14.20;;;19.80;81.90;;;22.86;58.35;100740.13;5053554;28;20202;-58
2022/09/13 05:31:35;;;;;;;15.53;13.77;;;19.90;82.20;;;22.87;58.21;100741.72;5053081;28;20186;-56
2022/09/13 05:34:06;;;;;;;14.40;13.03;;;19.90;82.10;;;22.92;58.17;100748.22;5053314;28;20180;-57
2022/09/13 05:36:33;;;;;;;15.20;13.30;;;19.90;82.00;;;22.92;58.18;100746.31;5053642;28;20549;-56
2022/09/13 05:39:03;;;;;;;16.23;14.53;;;19.90;81.80;;;22.92;58.04;100748.22;5053371;28;20595;-55
2022/09/13 05:41:51;;;;;;;14.23;12.83;;;20.00;81.90;;;22.91;58.42;100736.66;5053036;28;20763;-56
2022/09/13 05:44:18;;;;;;;14.13;12.80;;;20.00;81.90;;;22.96;58.67;100731.34;5054455;28;20190;-57
2022/09/13 05:46:47;;;;;;;13.83;12.23;;;20.00;82.30;;;23.00;58.71;100729.75;5052827;28;20273;-52
2022/09/13 05:49:15;;;;;;;13.37;12.07;;;20.10;82.40;;;23.06;58.43;100733.31;5052873;28;20293;-54
2022/09/13 05:51:42;;;;;;;15.37;13.77;;;20.10;82.50;;;23.10;58.49;100734.41;5052868;28;20200;-55
2022/09/13 05:54:12;;;;;;;16.80;15.00;;;20.10;82.40;;;23.11;58.60;100744.88;5052567;28;20253;-57
2022/09/13 05:56:39;;;;;;;15.97;14.13;;;20.20;82.40;;;23.12;58.47;100732.25;5051703;28;20549;-59
2022/09/13 05:59:11;;;;;;;16.33;14.67;;;20.20;82.40;;;23.11;58.44;100736.00;5041687;28;20214;-57
2022/09/13 06:01:38;;;;;;;15.03;13.53;;;20.20;82.60;;;23.09;58.37;100735.44;5032744;28;20202;-58
2022/09/13 06:04:06;;;;;;;14.33;12.87;;;20.20;82.40;;;23.08;58.70;100741.91;5032686;28;20195;-56
2022/09/13 06:06:34;;;;;;;16.73;13.37;;;20.20;82.70;;;23.05;58.96;100753.97;5033160;28;20194;-56
2022/09/13 06:09:02;;;;;;;13.87;12.43;;;20.10;82.50;;;23.02;58.85;100743.72;5031749;28;20182;-57
2022/09/13 06:11:31;;;;;;;16.57;14.20;;;20.10;82.60;;;23.01;58.98;100742.09;5032205;28;20243;-55
2022/09/13 06:13:58;;;;;;;13.80;12.50;;;20.10;82.80;;;23.01;59.20;100744.00;5032873;28;20567;-56
2022/09/13 06:16:26;;;;;;;15.40;13.80;;;20.10;83.00;;;22.99;59.38;100754.19;5032855;28;20236;-56
2022/09/13 06:18:53;;;;;;;15.30;13.10;;;20.10;82.90;;;22.98;59.25;100752.56;5032678;28;20244;-55
2022/09/13 06:21:22;;;;;;;14.40;12.90;;;20.10;83.00;;;22.97;59.37;100741.00;5032620;28;20878;-55
2022/09/13 06:23:55;;;;;;;14.27;12.70;;;20.10;83.20;;;22.98;59.46;100753.38;5033034;28;20241;-55
2022/09/13 06:26:25;;;;;;;14.93;13.43;;;20.10;83.40;;;23.01;59.45;100742.09;5032857;28;20202;-55
2022/09/13 06:28:56;;;;;;;15.07;13.60;;;20.10;83.50;;;23.02;59.37;100743.72;5032910;28;20198;-55
2022/09/13 06:31:27;;;;;;;13.40;12.10;;;20.10;83.40;;;23.06;59.70;100736.00;5032045;28;20636;-57
2022/09/13 06:33:58;;;;;;;13.70;12.30;;;20.10;83.40;;;23.10;59.46;100740.59;5032569;28;20569;-56
2022/09/13 06:36:26;;;;;;;15.77;14.03;;;20.20;83.80;;;23.13;59.53;100745.44;5032767;28;20203;-56
2022/09/13 06:38:54;;;;;;;15.47;12.97;;;20.20;83.60;;;23.13;59.40;100745.44;5032415;28;20238;-54
2022/09/13 06:41:23;;;;;;;12.90;11.50;;;20.20;83.30;;;23.16;59.07;100746.78;5032186;28;20309;-57
2022/09/13 06:43:56;;;;;;;14.53;12.90;;;20.20;83.50;;;23.18;59.06;100739.28;5032498;28;20218;-56
2022/09/13 06:46:25;;;;;;;12.73;11.53;;;20.30;83.30;;;23.19;59.00;100744.41;5032262;28;20183;-55
2022/09/13 06:48:54;;;;;;;12.93;11.63;;;20.30;83.10;;;23.20;58.92;100745.22;5032191;28;20191;-55
2022/09/13 06:51:24;;;;;;;13.00;11.73;;;20.30;83.00;;;23.20;58.74;100745.22;5031531;28;20215;-56
2022/09/13 06:53:55;;;;;;;11.93;10.73;;;20.30;82.90;;;23.21;58.89;100749.53;5032086;28;20191;-55
2022/09/13 06:56:25;;;;;;;11.73;10.53;;;20.30;82.80;;;23.20;58.71;100739.84;5032095;28;20179;-54
2022/09/13 06:58:58;;;;;;;13.07;11.70;;;20.30;82.80;;;23.21;58.78;100752.19;5031948;28;20292;-54
2022/09/13 07:01:28;;;;;;;15.13;11.80;;;20.30;82.80;;;23.19;58.90;100762.41;5031510;28;20602;-53
2022/09/13 07:04:01;;;;;;;13.07;11.77;;;20.30;82.80;;;23.19;58.85;100751.66;5032510;28;20175;-53
2022/09/13 07:06:31;;;;;;;11.33;10.13;;;20.30;82.90;;;23.21;58.84;100758.41;5032120;28;20194;-55
2022/09/13 07:09:00;;;;;;;12.60;11.37;;;20.30;82.90;;;23.24;58.86;100757.06;5032439;28;20183;-53
2022/09/13 07:11:33;;;;;;;12.93;11.03;;;20.30;83.20;;;23.29;58.95;100762.50;5031664;28;20195;-53
2022/09/13 07:14:05;;;;;;;12.07;10.77;;;20.30;84.00;;;23.31;58.88;100753.09;5031869;28;20186;-53
2022/09/13 07:16:36;;;;;;;11.83;10.63;;;20.30;83.20;;;23.36;58.61;100755.03;5031762;28;20611;-55
2022/09/13 07:19:06;;;;;;;11.23;10.10;;;20.40;83.30;;;23.39;58.90;100758.00;5031556;28;20214;-56
2022/09/13 07:21:34;;;;;;;12.33;11.03;;;20.40;83.20;;;23.49;58.97;100762.66;5031491;28;20194;-54
2022/09/13 07:24:03;;;;;;;12.50;11.20;;;20.40;83.50;;;23.65;58.87;100764.38;5031973;28;20208;-56
2022/09/13 07:26:30;;;;;;;12.90;11.57;;;20.50;83.90;;;23.81;58.73;100768.78;5031399;28;20194;-55
2022/09/13 07:29:01;;;;;;;12.00;10.80;;;20.60;83.70;;;23.89;58.16;100765.56;5031879;28;20209;-57
2022/09/13 07:31:33;;;;;;;15.13;10.57;;;20.70;83.50;;;23.89;58.07;100770.94;5031809;28;20175;-57
2022/09/13 07:34:02;;;;;;;11.73;10.53;;;20.70;82.90;;;23.90;58.03;100767.19;5031614;28;20191;-55
2022/09/13 07:36:33;;;;;;;10.63;9.20;;;20.80;82.90;;;23.94;57.77;100762.91;5031362;28;20725;-56
2022/09/13 07:39:01;;;;;;;13.90;12.60;;;20.80;82.80;;;23.97;58.14;100773.16;5031252;28;20203;-54
2022/09/13 07:41:31;;;;;;;13.07;10.70;;;20.90;82.70;;;24.01;57.87;100766.16;5030844;28;20656;-57
2022/09/13 07:44:06;;;;;;;9.43;7.97;;;20.90;82.40;;;24.03;57.67;100765.91;5031466;28;20191;-54
2022/09/13 07:46:38;;;;;;;11.77;10.30;;;21.00;82.30;;;24.12;57.87;100767.88;5031288;28;20228;-55
2022/09/13 07:49:06;;;;;;;11.00;9.93;;;21.00;82.50;;;24.20;57.97;100769.22;5031589;28;20194;-55
2022/09/13 07:51:38;;;;;;;10.57;9.47;;;21.00;82.40;;;24.25;57.38;100779.22;5030977;28;20203;-56
2022/09/13 07:54:10;;;;;;;10.70;9.70;;;21.10;82.30;;;24.30;57.70;100784.59;5031666;28;20689;-56
2022/09/13 07:56:40;;;;;;;11.53;10.43;;;21.10;82.20;;;24.35;56.97;100784.63;5031380;28;20652;-55
2022/09/13 07:59:13;;;;;;;11.53;10.40;;;21.20;82.10;;;24.38;57.22;100789.50;5030766;28;20571;-55
2022/09/13 08:01:44;;;;;;;10.30;9.30;;;21.20;81.80;;;24.38;56.60;100784.09;5030847;28;20206;-52
2022/09/13 08:04:16;;;;;;;9.60;8.70;;;21.20;81.40;;;24.33;56.96;100787.59;5031273;28;20190;-54
2022/09/13 08:06:45;;;;;;;11.47;10.10;;;21.30;81.40;;;24.31;56.87;100781.66;5031463;28;20583;-54
2022/09/13 08:09:15;;;;;;;11.47;10.27;;;21.30;81.50;;;24.30;56.83;100779.22;5031435;28;20190;-56
2022/09/13 08:11:45;;;;;;;10.10;9.20;;;21.30;81.10;;;24.32;57.51;100785.19;5030484;28;20202;-56
2022/09/13 08:14:15;;;;;;;9.50;8.60;;;21.30;81.50;;;24.33;56.92;100787.59;5031048;28;20215;-55
2022/09/13 08:16:44;;;;;;;9.33;8.53;;;21.30;81.30;;;24.33;57.10;100786.78;5031154;28;20201;-55
2022/09/13 08:19:15;;;;;;;9.97;8.97;;;21.30;81.10;;;24.31;56.69;100788.94;5030558;28;20280;-56
2022/09/13 08:21:43;;;;;;;9.47;8.57;;;21.30;80.90;;;24.28;56.76;100794.81;5030420;28;20198;-57
2022/09/13 08:24:15;;;;;;;9.60;8.30;;;21.30;80.90;;;24.26;57.09;100794.28;5031054;28;20241;-55
2022/09/13 08:26:43;;;;;;;10.10;7.60;;;21.30;81.00;;;24.27;56.79;100793.22;5030865;28;20201;-54
2022/09/13 08:29:12;;;;;;;9.37;8.47;;;21.30;81.10;;;24.27;56.86;100809.38;5030526;28;20570;-54
2022/09/13 08:31:40;;;;;;;7.97;7.17;;;21.30;81.10;;;24.23;57.05;100801.00;5030351;28;20202;-53
2022/09/13 08:34:13;;;;;;;10.37;9.37;;;21.30;81.10;;;24.22;56.97;100804.78;5030865;28;20191;-55
2022/09/13 08:36:41;;;;;;;10.00;8.97;;;21.30;81.20;;;24.20;57.32;100802.34;5030745;28;20607;-55
2022/09/13 08:39:12;;;;;;;8.60;7.77;;;21.30;81.30;;;24.17;57.26;100815.50;5030663;28;20206;-56
2022/09/13 08:42:02;;;;;;;10.10;8.43;;;21.20;81.30;;;24.07;57.52;100827.03;5030282;28;20194;-55
2022/09/13 08:44:35;;;;;;;9.07;4.03;;;21.20;81.90;;;24.05;57.08;100823.78;5030636;28;20249;-56
2022/09/13 08:47:27;;;;;;;6.40;3.10;;;21.10;80.70;;;23.93;57.11;100815.09;5030554;28;20627;-55
2022/09/13 08:50:05;;;;;;;5.63;2.07;;;21.10;80.30;;;23.89;56.81;100827.41;5030132;28;20202;-56
2022/09/13 08:52:45;;;;;;;5.07;3.33;;;21.00;80.20;;;23.85;57.27;100820.94;5029911;28;20210;-55
2022/09/13 08:55:25;;;;;;;4.90;3.73;;;21.00;80.40;;;23.89;57.19;100822.03;5030344;28;20620;-53
2022/09/13 08:58:04;;;;;;;6.13;4.60;;;21.00;80.90;;;23.94;57.51;100827.44;5030109;28;20179;-55
2022/09/13 09:00:38;;;;;;;7.60;4.20;;;21.00;81.00;;;24.00;57.08;100821.06;5029842;28;20241;-55
2022/09/13 09:03:23;;;;;;;5.77;3.70;;;21.00;80.50;;;24.04;56.74;100822.13;5028459;28;20234;-53
2022/09/13 09:05:53;;;;;;;14.93;13.10;;;21.00;80.50;;;24.18;56.77;100822.50;5030315;28;20200;-57
2022/09/13 09:08:33;;;;;;;6.67;4.67;;;21.00;80.90;;;24.33;56.36;100821.75;5030268;28;20233;-56
2022/09/13 09:11:09;;;;;;;5.50;4.27;;;21.10;80.60;;;24.45;56.18;100820.47;5030481;28;20190;-53
2022/09/13 09:13:51;;;;;;;7.83;4.73;;;21.10;80.40;;;24.56;56.13;100829.38;5030391;28;20267;-56
2022/09/13 09:16:35;;;;;;;5.47;3.77;;;21.20;80.30;;;24.92;55.27;100817.66;5030711;28;20195;-54
2022/09/13 09:19:17;;;;;;;15.70;3.67;;;21.40;80.40;;;25.47;54.40;100815.03;5030480;28;20253;-54
2022/09/13 09:21:50;;;;;;;7.80;5.13;;;21.60;80.60;;;26.69;53.03;100810.88;5030171;28;20195;-59
2022/09/13 09:24:22;;;;;;;5.00;3.30;;;22.00;81.30;;;28.17;50.52;100810.16;5030593;28;20183;-56
2022/09/13 09:26:52;;;;;;;5.87;2.90;;;22.60;80.90;;;29.76;47.04;100813.75;5030154;28;20225;-55
2022/09/13 09:29:24;;;;;;;8.23;2.97;;;23.40;79.10;;;31.04;43.99;100808.91;5030502;28;20193;-55
2022/09/13 09:32:08;;;;;;;6.63;3.03;;;24.30;77.30;;;32.01;42.31;100808.84;5028451;28;20617;-55
2022/09/13 09:34:53;;;;;;;4.67;2.97;;;25.20;74.00;;;33.13;39.53;100805.19;5030123;28;20236;-54
2022/09/13 09:37:24;;;;;;;9.77;7.23;;;26.10;68.90;;;33.64;38.01;100806.22;5030313;28;20310;-53
2022/09/13 09:40:01;;;;;;;6.03;3.03;;;26.80;66.50;;;33.41;37.78;100824.72;5029926;28;20222;-55
2022/09/13 09:42:38;;;;;;;6.87;2.70;;;27.40;63.30;;;32.62;37.21;100811.41;5029808;28;20241;-56
2022/09/13 09:45:25;;;;;;;7.40;2.50;;;27.50;59.20;;;31.67;38.38;100819.56;5033886;28;20183;-56
2022/09/13 09:47:55;;;;;;;3.80;2.13;;;27.40;58.40;;;30.96;38.78;100828.66;5033896;28;20194;-56
2022/09/13 09:50:28;;;;;;;6.70;2.03;;;27.10;56.90;;;30.26;39.36;100823.66;5033829;28;20194;-57
2022/09/13 09:53:05;;;;;;;4.17;2.00;;;26.80;57.30;;;29.83;39.22;100825.06;5035071;28;20214;-55
2022/09/13 09:55:43;;;;;;;5.17;2.60;;;26.40;56.30;;;29.49;40.18;100815.31;5035405;28;20209;-57
2022/09/13 09:58:15;;;;;;;2.33;1.60;;;26.10;56.70;;;29.16;40.01;100819.09;5033715;28;20300;-57
2022/09/13 10:00:52;;;;;;;6.83;2.30;;;25.80;56.80;;;28.98;40.11;100822.63;5033315;28;20257;-58
2022/09/13 10:03:25;;;;;;;4.00;1.83;;;25.60;57.20;;;29.74;39.80;100819.47;5033405;28;20210;-56
2022/09/13 10:06:05;;;;;;;3.83;1.37;;;25.60;58.40;;;31.16;38.23;100820.84;5034448;28;20253;-54
2022/09/13 10:08:37;;;;;;;3.73;1.57;;;25.90;58.30;;;32.66;35.16;100809.63;5034737;28;20217;-56
2022/09/13 10:11:06;;;;;;;4.53;1.60;;;26.40;57.40;;;34.33;32.81;100807.47;5033432;28;20190;-53
2022/09/13 10:13:34;;;;;;;5.10;1.50;;;27.20;56.30;;;35.73;30.05;100808.34;5032190;28;20225;-58
2022/09/13 10:16:06;;;;;;;3.05;1.15;;;28.00;54.00;;;36.38;28.44;100817.47;5034079;28;20755;-54
2022/09/13 10:18:35;;;;;;;3.28;1.60;;;28.90;49.50;;;35.87;27.29;100805.28;5033412;28;20186;-55
2022/09/13 10:21:23;;;;;;;3.20;1.57;;;29.40;46.80;;;35.03;29.03;100809.41;5032905;28;20213;-55
2022/09/13 10:24:20;;;;;;;2.97;1.60;;;29.60;44.80;;;34.62;28.67;100806.66;5033906;28;20210;-56
2022/09/13 10:26:47;;;;;;;2.07;1.30;;;29.70;43.80;;;34.94;29.25;100805.94;5032907;28;20241;-55
2022/09/13 10:29:17;;;;;;;2.92;1.58;;;29.70;44.90;;;35.81;27.59;100796.47;5032405;28;20266;-56
2022/09/13 10:31:52;;;;;;;2.33;1.37;;;29.90;44.60;;;36.81;26.42;100795.66;5031872;28;20201;-54